createdAt,value
2023-03-30T00:01:20.098Z,10.03
2023-03-30T00:03:49.285Z,10.97
2023-03-30T00:06:24.443Z,11.03
2023-03-30T00:08:57.339Z,11.13
2023-03-30T00:11:26.996Z,9.80
2023-03-30T00:13:54.535Z,9.53
2023-03-30T00:16:21.894Z,10.03
2023-03-30T00:18:49.043Z,10.40
2023-03-30T00:21:18.221Z,9.43
2023-03-30T00:23:49.090Z,10.47
2023-03-30T00:26:17.611Z,9.53
2023-03-30T00:28:46.208Z,9.73
2023-03-30T00:31:13.444Z,9.20
2023-03-30T00:33:46.305Z,9.47
2023-03-30T00:36:14.942Z,10.40
2023-03-30T00:38:42.067Z,9.97
2023-03-30T00:41:09.431Z,9.90
2023-03-30T00:43:56.915Z,9.60
2023-03-30T00:46:24.398Z,9.33
2023-03-30T00:48:51.675Z,9.73
2023-03-30T00:51:19.608Z,8.57
2023-03-30T00:53:50.766Z,9.50
2023-03-30T00:56:23.524Z,9.60
2023-03-30T00:58:50.858Z,8.83
2023-03-30T01:01:25.980Z,9.60
2023-03-30T01:03:53.865Z,8.67
2023-03-30T01:06:24.868Z,9.27
2023-03-30T01:08:53.500Z,8.53
2023-03-30T01:11:21.647Z,8.87
2023-03-30T01:14:03.230Z,9.53
2023-03-30T01:16:38.501Z,9.20
2023-03-30T01:19:45.008Z,10.13
2023-03-30T01:22:42.708Z,9.70
2023-03-30T01:25:18.478Z,10.00
2023-03-30T01:28:31.051Z,9.50
2023-03-30T01:31:50.393Z,8.53
2023-03-30T01:34:51.855Z,10.13
2023-03-30T01:37:33.112Z,8.60
2023-03-30T01:40:27.671Z,9.23
2023-03-30T01:43:19.435Z,9.33
2023-03-30T01:46:01.685Z,10.00
2023-03-30T01:48:47.867Z,9.63
2023-03-30T01:51:33.428Z,10.07
2023-03-30T01:54:21.393Z,9.63
2023-03-30T01:56:59.717Z,9.83
2023-03-30T01:59:36.707Z,11.20
2023-03-30T02:02:07.287Z,10.57
2023-03-30T02:04:41.988Z,10.00
2023-03-30T02:07:21.243Z,9.90
2023-03-30T02:09:52.043Z,9.70
2023-03-30T02:12:20.952Z,9.97
2023-03-30T02:14:49.643Z,10.70
2023-03-30T02:17:23.117Z,9.40
2023-03-30T02:19:52.604Z,10.43
2023-03-30T02:22:20.475Z,10.23
2023-03-30T02:24:51.680Z,9.53
2023-03-30T02:27:19.051Z,9.40
2023-03-30T02:29:46.468Z,9.73
2023-03-30T02:32:33.686Z,10.03
2023-03-30T02:35:59.366Z,9.80
2023-03-30T02:39:19.859Z,9.80
2023-03-30T02:42:05.119Z,9.27
2023-03-30T02:44:43.962Z,9.77
2023-03-30T02:47:52.076Z,9.30
2023-03-30T02:50:44.929Z,10.20
2023-03-30T02:53:33.567Z,9.63
2023-03-30T02:56:19.356Z,10.07
2023-03-30T02:58:56.696Z,10.13
2023-03-30T03:01:51.091Z,10.50
2023-03-30T03:04:22.179Z,9.90
2023-03-30T03:06:53.085Z,11.23
2023-03-30T03:09:20.866Z,9.63
2023-03-30T03:11:47.955Z,9.23
2023-03-30T03:14:15.003Z,10.03
2023-03-30T03:16:42.382Z,9.97
2023-03-30T03:19:10.790Z,9.40
2023-03-30T03:21:37.793Z,9.70
2023-03-30T03:24:06.612Z,10.20
2023-03-30T03:26:34.140Z,10.43
2023-03-30T03:29:01.128Z,10.47
2023-03-30T03:31:28.242Z,9.90
2023-03-30T03:33:55.377Z,9.90
2023-03-30T03:36:25.350Z,9.87
2023-03-30T03:38:52.515Z,10.57
2023-03-30T03:41:19.709Z,11.00
2023-03-30T03:43:46.921Z,9.43
2023-03-30T03:46:14.476Z,10.90
2023-03-30T03:48:41.567Z,10.00
2023-03-30T03:51:09.896Z,9.57
2023-03-30T03:53:37.010Z,10.07
2023-03-30T03:56:04.252Z,10.77
2023-03-30T03:58:31.874Z,9.97
2023-03-30T04:01:03.340Z,10.07
2023-03-30T04:03:30.867Z,9.90
2023-03-30T04:06:02.491Z,10.83
2023-03-30T04:08:29.866Z,10.53
2023-03-30T04:11:08.146Z,11.00
2023-03-30T04:13:36.076Z,11.00
2023-03-30T04:16:03.437Z,11.40
2023-03-30T04:18:34.265Z,11.00
2023-03-30T04:21:07.626Z,10.00
2023-03-30T04:23:35.702Z,10.43
2023-03-30T04:26:07.325Z,11.53
2023-03-30T04:28:35.724Z,11.87
2023-03-30T04:31:06.726Z,10.47
2023-03-30T04:33:35.157Z,11.20
2023-03-30T04:36:02.396Z,11.17
2023-03-30T04:38:30.431Z,11.33
2023-03-30T04:41:00.634Z,11.10
2023-03-30T04:43:27.675Z,11.17
2023-03-30T04:45:56.646Z,11.13
2023-03-30T04:48:24.732Z,10.67
2023-03-30T04:50:54.189Z,11.23
2023-03-30T04:53:23.084Z,10.70
2023-03-30T04:55:51.980Z,11.13
2023-03-30T04:58:19.049Z,11.33
2023-03-30T05:00:46.128Z,11.70
2023-03-30T05:03:13.448Z,11.80
2023-03-30T05:05:40.727Z,11.43
2023-03-30T05:08:07.847Z,10.43
2023-03-30T05:10:35.045Z,11.20
2023-03-30T05:13:02.130Z,10.97
2023-03-30T05:15:29.302Z,11.17
2023-03-30T05:17:56.844Z,10.43
2023-03-30T05:20:24.141Z,12.13
2023-03-30T05:22:51.282Z,11.20
2023-03-30T05:25:18.607Z,11.87
2023-03-30T05:27:45.811Z,11.70
2023-03-30T05:30:14.125Z,10.70
2023-03-30T05:32:41.538Z,11.77
2023-03-30T05:35:09.057Z,12.03
2023-03-30T05:37:36.464Z,12.40
2023-03-30T05:40:07.365Z,12.13
2023-03-30T05:42:34.464Z,11.27
2023-03-30T05:45:01.657Z,12.20
2023-03-30T05:47:29.110Z,12.43
2023-03-30T05:49:56.174Z,12.93
2023-03-30T05:52:23.975Z,12.03
2023-03-30T05:54:51.097Z,11.90
2023-03-30T05:57:18.246Z,11.40
2023-03-30T05:59:45.496Z,11.67
2023-03-30T06:02:13.018Z,12.23
2023-03-30T06:04:40.224Z,12.67
2023-03-30T06:07:07.958Z,11.60
2023-03-30T06:09:35.159Z,11.90
2023-03-30T06:12:02.709Z,12.77
2023-03-30T06:14:30.032Z,12.93
2023-03-30T06:16:57.384Z,12.33
2023-03-30T06:19:24.573Z,13.10
2023-03-30T06:21:51.579Z,12.17
2023-03-30T06:24:20.179Z,13.27
2023-03-30T06:26:48.666Z,12.53
2023-03-30T06:29:15.794Z,12.90
2023-03-30T06:31:42.919Z,13.20
2023-03-30T06:34:10.001Z,12.67
2023-03-30T06:36:43.931Z,12.83
2023-03-30T06:39:13.314Z,13.13
2023-03-30T06:41:40.694Z,14.70
2023-03-30T06:44:10.466Z,12.00
2023-03-30T06:46:38.137Z,11.80
2023-03-30T06:49:05.179Z,13.10
2023-03-30T06:51:33.996Z,12.13
2023-03-30T06:54:01.983Z,12.73
2023-03-30T06:56:29.014Z,12.23
2023-03-30T06:58:57.223Z,13.07
2023-03-30T07:01:24.382Z,12.27
2023-03-30T07:03:53.517Z,11.63
2023-03-30T07:06:21.297Z,11.63
2023-03-30T07:08:48.589Z,12.93
2023-03-30T07:11:15.630Z,12.43
2023-03-30T07:13:42.767Z,11.90
2023-03-30T07:16:10.210Z,12.67
2023-03-30T07:18:37.312Z,12.87
2023-03-30T07:21:05.099Z,12.70
2023-03-30T07:23:32.466Z,12.57
2023-03-30T07:25:59.942Z,13.17
2023-03-30T07:28:27.214Z,12.10
2023-03-30T07:30:54.414Z,11.43
2023-03-30T07:33:22.177Z,11.47
2023-03-30T07:35:50.192Z,12.23
2023-03-30T07:38:17.537Z,13.37
2023-03-30T07:40:44.710Z,12.17
2023-03-30T07:43:11.744Z,12.40
2023-03-30T07:45:38.801Z,12.10
2023-03-30T07:48:06.054Z,12.70
2023-03-30T07:50:33.102Z,11.97
2023-03-30T07:53:00.315Z,11.40
2023-03-30T07:55:28.804Z,12.70
2023-03-30T07:57:57.254Z,12.57
2023-03-30T08:00:25.040Z,12.20
2023-03-30T08:02:52.319Z,12.73
2023-03-30T08:05:19.482Z,11.83
2023-03-30T08:07:46.543Z,11.33
2023-03-30T08:10:13.635Z,11.97
2023-03-30T08:12:41.574Z,11.17
2023-03-30T08:15:09.708Z,11.53
2023-03-30T08:17:37.308Z,11.57
2023-03-30T08:20:10.770Z,12.10
2023-03-30T08:22:37.880Z,11.90
2023-03-30T08:25:06.044Z,11.97
2023-03-30T08:27:33.173Z,10.40
2023-03-30T08:30:00.646Z,12.50
2023-03-30T08:32:30.343Z,12.90
2023-03-30T08:34:57.418Z,11.13
2023-03-30T08:37:25.162Z,12.57
2023-03-30T08:39:52.367Z,12.97
2023-03-30T08:42:50.644Z,12.47
2023-03-30T08:45:18.716Z,10.87
2023-03-30T08:47:51.120Z,11.27
2023-03-30T08:50:36.520Z,11.63
2023-03-30T08:53:08.265Z,11.50
2023-03-30T08:55:58.641Z,11.83
2023-03-30T08:58:55.996Z,11.40
2023-03-30T09:01:29.442Z,11.47
2023-03-30T09:04:33.557Z,11.13
2023-03-30T09:07:22.591Z,12.17
2023-03-30T09:09:55.131Z,10.37
2023-03-30T09:12:48.667Z,12.33
2023-03-30T09:15:39.554Z,12.63
2023-03-30T09:18:32.336Z,12.73
2023-03-30T09:21:06.327Z,12.70
2023-03-30T09:23:36.018Z,11.97
2023-03-30T09:26:14.843Z,13.60
2023-03-30T09:29:01.174Z,13.47
2023-03-30T09:31:44.483Z,13.53
2023-03-30T09:34:38.156Z,12.83
2023-03-30T09:37:11.890Z,13.17
2023-03-30T09:39:39.995Z,12.90
2023-03-30T09:43:10.718Z,13.77
2023-03-30T09:45:39.352Z,11.43
2023-03-30T09:48:09.046Z,12.27
2023-03-30T09:50:43.796Z,12.40
2023-03-30T09:53:27.766Z,12.33
2023-03-30T09:56:23.179Z,13.17
2023-03-30T09:58:50.547Z,13.03
2023-03-30T10:01:20.666Z,12.73
2023-03-30T10:04:10.238Z,11.87
2023-03-30T10:06:50.803Z,13.23
2023-03-30T10:09:24.113Z,12.43
2023-03-30T10:11:54.616Z,12.35
2023-03-30T10:14:33.959Z,12.27
2023-03-30T10:17:02.336Z,11.80
2023-03-30T10:19:30.452Z,11.90
2023-03-30T10:21:59.921Z,11.43
2023-03-30T10:24:31.589Z,12.18
2023-03-30T10:27:16.120Z,11.82
2023-03-30T10:29:50.348Z,14.57
2023-03-30T10:32:23.644Z,10.60
2023-03-30T10:35:02.038Z,11.82
2023-03-30T10:37:39.301Z,9.60
2023-03-30T10:40:26.644Z,10.38
2023-03-30T10:42:58.018Z,9.88
2023-03-30T10:45:35.343Z,10.18
2023-03-30T10:48:27.356Z,9.77
2023-03-30T10:51:03.053Z,8.35
2023-03-30T10:53:39.896Z,9.70
2023-03-30T10:56:41.423Z,9.63
2023-03-30T10:59:47.218Z,9.70
2023-03-30T11:02:40.045Z,9.75
2023-03-30T11:05:25.116Z,9.50
2023-03-30T11:08:18.518Z,9.73
2023-03-30T11:10:53.381Z,9.93
2023-03-30T11:13:43.049Z,8.55
2023-03-30T11:16:27.382Z,9.73
2023-03-30T11:19:07.403Z,10.07
2023-03-30T11:22:04.864Z,9.23
2023-03-30T11:24:34.264Z,9.60
2023-03-30T11:27:14.134Z,10.02
2023-03-30T11:30:03.297Z,9.32
2023-03-30T11:33:17.924Z,9.25
2023-03-30T11:36:19.005Z,10.77
2023-03-30T11:39:07.424Z,10.48
2023-03-30T11:41:39.043Z,10.25
2023-03-30T11:44:08.731Z,9.63
2023-03-30T11:47:14.952Z,10.18
2023-03-30T11:50:15.312Z,9.57
2023-03-30T11:53:03.149Z,9.80
2023-03-30T11:56:02.968Z,9.90
2023-03-30T11:58:47.729Z,9.45
2023-03-30T12:01:41.803Z,10.20
2023-03-30T12:04:14.921Z,9.68
2023-03-30T12:07:01.703Z,9.43
2023-03-30T12:10:02.800Z,9.15
2023-03-30T12:12:36.449Z,9.43
2023-03-30T12:15:40.372Z,10.10
2023-03-30T12:18:31.978Z,9.60
2023-03-30T12:21:32.519Z,9.45
2023-03-30T12:24:42.156Z,9.40
2023-03-30T12:27:11.844Z,9.40
2023-03-30T12:30:01.750Z,9.52
2023-03-30T12:32:30.987Z,9.40
2023-03-30T12:34:58.660Z,9.30
2023-03-30T12:37:38.231Z,9.80
2023-03-30T12:40:22.322Z,9.57
2023-03-30T12:43:15.519Z,9.50
2023-03-30T12:46:06.166Z,9.20
2023-03-30T12:49:05.993Z,9.38
2023-03-30T12:51:53.088Z,8.30
2023-03-30T12:55:26.741Z,9.23
2023-03-30T12:58:30.937Z,8.57
2023-03-30T13:01:18.909Z,7.93
2023-03-30T13:04:01.711Z,8.63
2023-03-30T13:06:37.110Z,7.88
2023-03-30T13:09:15.863Z,8.88
2023-03-30T13:12:06.913Z,8.52
2023-03-30T13:14:38.292Z,7.80
2023-03-30T13:17:08.171Z,8.82
2023-03-30T13:19:37.348Z,9.10
2023-03-30T13:22:13.192Z,7.82
2023-03-30T13:24:47.098Z,8.40
2023-03-30T13:27:14.028Z,8.18
2023-03-30T13:29:42.540Z,7.55
2023-03-30T13:32:23.471Z,7.43
2023-03-30T13:35:07.367Z,7.45
2023-03-30T13:37:53.137Z,8.43
2023-03-30T13:40:41.527Z,7.72
2023-03-30T13:43:50.908Z,7.28
2023-03-30T13:46:42.165Z,7.07
2023-03-30T13:49:18.537Z,6.55
2023-03-30T13:51:46.383Z,6.57
2023-03-30T13:54:30.823Z,6.78
2023-03-30T13:57:09.960Z,6.80
2023-03-30T13:59:43.616Z,7.20
2023-03-30T14:02:17.646Z,6.15
2023-03-30T14:04:45.276Z,6.10
2023-03-30T14:07:24.191Z,5.03
2023-03-30T14:10:16.920Z,4.68
2023-03-30T14:12:46.305Z,5.35
2023-03-30T14:15:42.600Z,5.32
2023-03-30T14:18:20.627Z,4.70
2023-03-30T14:21:00.839Z,4.68
2023-03-30T14:23:45.530Z,5.20
2023-03-30T14:26:28.058Z,4.72
2023-03-30T14:28:59.620Z,4.90
2023-03-30T14:31:27.409Z,4.90
2023-03-30T14:33:55.236Z,3.92
2023-03-30T14:36:22.855Z,4.35
2023-03-30T14:38:52.968Z,4.53
2023-03-30T14:41:28.514Z,4.93
2023-03-30T14:44:06.354Z,3.92
2023-03-30T14:46:47.013Z,4.50
2023-03-30T14:49:21.617Z,4.82
2023-03-30T14:51:51.935Z,5.03
2023-03-30T14:54:24.492Z,5.25
2023-03-30T14:57:00.273Z,5.00
2023-03-30T14:59:29.053Z,5.20
2023-03-30T15:01:56.948Z,5.20
2023-03-30T15:04:37.663Z,5.20
2023-03-30T15:07:05.438Z,4.97
2023-03-30T15:09:38.600Z,5.90
2023-03-30T15:12:06.405Z,5.22
2023-03-30T15:14:39.270Z,5.47
2023-03-30T15:17:18.178Z,5.57
2023-03-30T15:19:47.262Z,5.80
2023-03-30T15:22:35.081Z,5.90
2023-03-30T15:25:08.169Z,5.78
2023-03-30T15:27:37.739Z,5.75
2023-03-30T15:30:06.952Z,5.57
2023-03-30T15:32:39.205Z,5.45
2023-03-30T15:35:26.166Z,6.10
2023-03-30T15:38:11.068Z,5.63
2023-03-30T15:40:48.133Z,6.03
2023-03-30T15:43:27.481Z,6.68
2023-03-30T15:46:07.094Z,6.28
2023-03-30T15:48:53.673Z,5.57
2023-03-30T15:51:37.313Z,6.28
2023-03-30T15:54:40.395Z,7.38
2023-03-30T15:57:21.313Z,6.32
2023-03-30T16:00:01.442Z,6.07
2023-03-30T16:02:46.319Z,6.47
2023-03-30T16:05:20.867Z,6.20
2023-03-30T16:07:49.044Z,6.75
2023-03-30T16:10:32.639Z,6.30
2023-03-30T16:13:01.395Z,6.20
2023-03-30T16:15:31.954Z,6.25
2023-03-30T16:17:59.373Z,6.30
2023-03-30T16:20:30.757Z,7.00
2023-03-30T16:22:58.309Z,6.22
2023-03-30T16:25:37.811Z,6.32
2023-03-30T16:28:17.299Z,6.32
2023-03-30T16:30:47.965Z,6.32
2023-03-30T16:33:15.025Z,6.75
2023-03-30T16:35:42.137Z,6.60
2023-03-30T16:38:19.012Z,6.30
2023-03-30T16:40:54.203Z,7.20
2023-03-30T16:43:21.490Z,6.22
2023-03-30T16:45:48.682Z,6.25
2023-03-30T16:48:16.444Z,7.07
2023-03-30T16:50:46.670Z,6.78
2023-03-30T16:53:14.033Z,7.88
2023-03-30T16:55:41.745Z,7.43
2023-03-30T16:58:13.807Z,7.40
2023-03-30T17:00:48.596Z,7.68
2023-03-30T17:03:16.046Z,7.70
2023-03-30T17:05:51.468Z,8.77
2023-03-30T17:08:29.341Z,8.45
2023-03-30T17:11:04.944Z,9.73
2023-03-30T17:13:32.675Z,9.38
2023-03-30T17:16:01.233Z,9.52
2023-03-30T17:18:28.958Z,8.50
2023-03-30T17:20:58.721Z,7.90
2023-03-30T17:23:28.734Z,8.77
2023-03-30T17:25:58.393Z,8.73
2023-03-30T17:28:34.819Z,8.77
2023-03-30T17:31:06.602Z,9.10
2023-03-30T17:33:36.216Z,8.90
2023-03-30T17:36:22.973Z,8.88
2023-03-30T17:38:51.393Z,9.77
2023-03-30T17:41:19.829Z,9.30
2023-03-30T17:43:48.378Z,9.38
2023-03-30T17:46:18.816Z,8.97
2023-03-30T17:48:46.481Z,10.27
2023-03-30T17:51:13.508Z,10.20
2023-03-30T17:53:40.604Z,9.77
2023-03-30T17:56:07.905Z,9.37
2023-03-30T17:58:36.698Z,10.13
2023-03-30T18:01:08.284Z,10.10
2023-03-30T18:03:38.478Z,10.13
2023-03-30T18:06:06.523Z,11.07
2023-03-30T18:08:33.584Z,10.43
2023-03-30T18:11:01.678Z,10.27
2023-03-30T18:13:30.583Z,10.70
2023-03-30T18:16:00.145Z,10.07
2023-03-30T18:18:30.928Z,10.57
2023-03-30T18:21:03.091Z,10.80
2023-03-30T18:23:34.968Z,9.65
2023-03-30T18:26:09.265Z,10.35
2023-03-30T18:28:40.555Z,11.10
2023-03-30T18:31:08.932Z,10.80
2023-03-30T18:33:36.259Z,10.77
2023-03-30T18:36:07.576Z,10.35
2023-03-30T18:38:35.363Z,10.77
2023-03-30T18:41:02.447Z,10.43
2023-03-30T18:43:29.645Z,10.47
2023-03-30T18:46:02.595Z,11.03
2023-03-30T18:48:30.957Z,10.63
2023-03-30T18:50:58.477Z,10.83
2023-03-30T18:53:28.374Z,11.30
2023-03-30T18:56:00.733Z,10.38
2023-03-30T18:58:33.633Z,11.30
2023-03-30T19:01:01.491Z,11.95
2023-03-30T19:03:30.136Z,10.70
2023-03-30T19:05:57.412Z,12.52
2023-03-30T19:08:26.540Z,12.10
2023-03-30T19:10:57.279Z,13.07
2023-03-30T19:13:26.491Z,11.73
2023-03-30T19:15:54.091Z,11.27
2023-03-30T19:18:21.607Z,11.77
2023-03-30T19:20:50.145Z,12.15
2023-03-30T19:23:18.752Z,12.77
2023-03-30T19:25:46.117Z,13.48
2023-03-30T19:28:14.693Z,12.25
2023-03-30T19:30:41.974Z,12.80
2023-03-30T19:33:12.850Z,12.90
2023-03-30T19:35:41.614Z,13.03
2023-03-30T19:38:09.677Z,12.57
2023-03-30T19:40:41.563Z,13.07
2023-03-30T19:43:09.427Z,13.90
2023-03-30T19:45:36.801Z,13.17
2023-03-30T19:48:04.237Z,13.13
2023-03-30T19:50:31.735Z,14.23
2023-03-30T19:52:59.514Z,12.70
2023-03-30T19:55:27.161Z,12.87
2023-03-30T19:57:54.575Z,13.47
2023-03-30T20:00:21.942Z,12.37
2023-03-30T20:02:53.155Z,13.97
2023-03-30T20:05:24.725Z,12.10
2023-03-30T20:07:52.798Z,12.52
2023-03-30T20:10:24.582Z,14.00
2023-03-30T20:12:53.184Z,13.63
2023-03-30T20:15:22.906Z,13.35
2023-03-30T20:17:50.215Z,13.40
2023-03-30T20:20:22.891Z,14.03
2023-03-30T20:22:53.474Z,13.57
2023-03-30T20:25:24.845Z,13.90
2023-03-30T20:27:52.765Z,13.73
2023-03-30T20:30:21.194Z,14.40
2023-03-30T20:33:03.804Z,13.33
2023-03-30T20:35:37.993Z,13.33
2023-03-30T20:38:06.332Z,12.75
2023-03-30T20:40:33.395Z,13.57
2023-03-30T20:43:03.620Z,13.40
2023-03-30T20:45:31.954Z,13.73
2023-03-30T20:48:06.018Z,13.13
2023-03-30T20:50:33.966Z,13.20
2023-03-30T20:53:01.595Z,13.80
2023-03-30T20:55:28.594Z,13.43
2023-03-30T20:57:55.666Z,12.50
2023-03-30T21:00:23.307Z,12.97
2023-03-30T21:02:50.359Z,12.97
2023-03-30T21:05:17.536Z,12.70
2023-03-30T21:07:47.269Z,13.03
2023-03-30T21:10:16.365Z,12.50
2023-03-30T21:12:43.530Z,14.10
2023-03-30T21:15:11.184Z,14.57
2023-03-30T21:17:38.584Z,14.13
2023-03-30T21:20:09.233Z,12.53
2023-03-30T21:22:36.555Z,12.90
2023-03-30T21:25:03.957Z,14.10
2023-03-30T21:27:31.022Z,13.43
2023-03-30T21:29:58.201Z,13.17
2023-03-30T21:32:25.440Z,12.83
2023-03-30T21:34:52.617Z,13.47
2023-03-30T21:37:19.700Z,13.53
2023-03-30T21:39:46.891Z,12.10
2023-03-30T21:42:13.974Z,12.83
2023-03-30T21:44:40.992Z,13.20
2023-03-30T21:47:08.035Z,12.37
2023-03-30T21:49:37.268Z,12.83
2023-03-30T21:52:04.595Z,13.20
2023-03-30T21:54:31.753Z,11.48
2023-03-30T21:56:58.837Z,12.60
2023-03-30T21:59:25.946Z,12.47
2023-03-30T22:01:53.166Z,11.40
2023-03-30T22:04:20.822Z,10.57
2023-03-30T22:06:47.942Z,11.33
2023-03-30T22:09:15.020Z,10.80
2023-03-30T22:11:42.657Z,10.30
2023-03-30T22:14:09.692Z,9.63
2023-03-30T22:16:36.905Z,9.47
2023-03-30T22:19:04.872Z,10.00
2023-03-30T22:21:35.607Z,9.13
2023-03-30T22:24:07.684Z,9.80
2023-03-30T22:26:36.290Z,9.70
2023-03-30T22:29:04.594Z,9.97
2023-03-30T22:31:32.774Z,8.53
2023-03-30T22:33:59.880Z,8.30
2023-03-30T22:36:30.919Z,8.38
2023-03-30T22:39:00.267Z,8.17
2023-03-30T22:41:28.357Z,8.63
2023-03-30T22:43:57.581Z,8.00
2023-03-30T22:46:27.090Z,7.43
2023-03-30T22:48:55.660Z,9.03
2023-03-30T22:51:27.672Z,8.00
2023-03-30T22:53:59.405Z,7.97
2023-03-30T22:56:30.762Z,7.90
2023-03-30T22:59:01.380Z,7.57
2023-03-30T23:01:32.092Z,7.70
2023-03-30T23:03:59.764Z,7.50
2023-03-30T23:06:26.998Z,8.45
2023-03-30T23:08:54.579Z,8.53
2023-03-30T23:11:21.673Z,8.17
2023-03-30T23:13:49.195Z,7.77
2023-03-30T23:16:16.218Z,8.00
2023-03-30T23:18:43.268Z,8.17
2023-03-30T23:21:11.156Z,9.20
2023-03-30T23:23:38.550Z,8.43
2023-03-30T23:26:09.742Z,8.50
2023-03-30T23:28:42.522Z,8.57
2023-03-30T23:31:15.911Z,9.23
2023-03-30T23:33:43.675Z,9.93
2023-03-30T23:36:17.353Z,8.63
2023-03-30T23:38:45.031Z,7.93
2023-03-30T23:41:19.074Z,8.30
2023-03-30T23:43:47.072Z,8.73
2023-03-30T23:46:15.571Z,8.33
2023-03-30T23:48:43.172Z,9.03
2023-03-30T23:51:10.701Z,9.83
2023-03-30T23:53:41.720Z,9.87
2023-03-30T23:56:17.790Z,8.43
2023-03-30T23:58:46.146Z,8.23
